NJK weather

El Centro NAF Airport (Vraciu Field)
El Centro, California, United States

Public forecast

Using degrees Fahrenheit for public forecast. Weather courtesy of forecast.io.

Current aviation weather report (METAR) for El Centro NAF Airport (Vraciu Field)

Retrieved 2019/12/07 20:56 UTC (30 minutes ago):

KNJK 072056Z 00000KT 10SM FEW050 SCT080 OVC100 17/11 A3011 RMK AO2 RAE50 SLP210 P0001 60001 T01720111 58024

Aviation forecast (TAF) for El Centro NAF Airport (Vraciu Field)

Forecast is more than 12 hours old.

Retrieved 2016/08/04 23:15 UTC (3 years ago):

TAF KNJK 032300Z 0323/0423 VRB06KT 9999 FEW080 FEW280 TEMPO 0323/0405 14010KT FM040600 VRB06KT FEW280 QNH2968INS AUTOMATED SENSOR METWATCH 0406 TIL 0413 TX41/0323Z TN28/0412Z FS30081